Terminal Aerodrome Forecast
Issued by NWS

Home | Current Version | Previous Version | Text Only | Print | Product List | Glossary On
Versions: 1 2 3 4 5 6 7 8 9 10 11 12 13 14 15 16 17 18 19 20 21
000
FTUS46 KLOX 291700
TAFLGB
TAF
KLGB 291730Z 2918/3018 18007KT P6SM BKN250
     FM292300 29008KT P6SM SCT250
     FM300200 VRB03KT P6SM SCT250
     FM300800 VRB03KT 2SM BR BKN002
     FM301100 VRB03KT 1/2SM FG VV002
     FM301600 VRB03KT 3SM BR SCT004=

USA.gov is the U.S. government's official web portal to all federal, state and local government web resources and services.